Time;durP1;ratioP1;P1;durP2;ratioP2;P2;SDS_P1;SDS_P2;PMS_P1;PMS_P2;Temp;Humidity;BMP_temperature;BMP_pressure;BME280_temperature;BME280_humidity;BME280_pressure;Samples;Min_cycle;Max_cycle;Signal;HPM_P1;HPM_P2
2023/08/20 00:01:03;;;;;;;22.98;9.63;;;;;;;29.69;36.16;100296.53;1670132;86;21346;-75
2023/08/20 00:04:09;;;;;;;24.47;9.10;;;;;;;29.72;36.13;100299.58;1670105;86;21832;-75
2023/08/20 00:07:18;;;;;;;24.82;8.58;;;;;;;29.61;36.31;100293.84;1669225;86;21366;-75
2023/08/20 00:10:23;;;;;;;26.20;9.60;;;;;;;29.77;36.11;100292.46;1684459;85;21327;-75
2023/08/20 00:13:29;;;;;;;23.50;9.53;;;;;;;29.73;36.10;100292.80;1670404;86;21272;-81
2023/08/20 00:16:36;;;;;;;24.23;8.75;;;;;;;29.99;35.75;100291.02;1669965;86;21888;-81
2023/08/20 00:19:41;;;;;;;16.70;8.65;;;;;;;29.73;36.04;100292.80;1670303;86;21288;-76
2023/08/20 00:22:48;;;;;;;14.40;8.20;;;;;;;29.49;36.37;100294.81;1668727;86;21331;-81
2023/08/20 00:25:54;;;;;;;24.15;8.25;;;;;;;29.87;35.78;100293.45;1669353;85;21393;-80
2023/08/20 00:29:02;;;;;;;15.78;8.10;;;;;;;29.88;35.70;100289.48;1683407;85;21327;-77
2023/08/20 00:32:08;;;;;;;22.20;7.65;;;;;;;29.41;36.39;100288.47;1683780;85;21359;-74
2023/08/20 00:35:13;;;;;;;14.47;8.40;;;;;;;29.54;36.24;100282.92;1668890;86;22150;-75
2023/08/20 00:38:18;;;;;;;19.87;8.18;;;;;;;29.51;36.26;100280.70;1669462;86;21280;-80
2023/08/20 00:41:26;;;;;;;20.80;9.03;;;;;;;29.49;36.42;100284.95;1669898;86;21813;-80
2023/08/20 00:44:32;;;;;;;19.37;7.65;;;;;;;29.46;36.45;100285.00;1669852;86;21890;-81
2023/08/20 00:47:38;;;;;;;12.80;7.17;;;;;;;29.34;36.62;100286.00;1683913;85;21311;-75
2023/08/20 00:50:44;;;;;;;17.45;8.38;;;;;;;29.40;36.60;100288.17;1684841;85;21319;-80
2023/08/20 00:53:50;;;;;;;14.10;8.08;;;;;;;29.57;36.45;100279.25;1669135;86;21343;-75
2023/08/20 00:56:56;;;;;;;19.40;8.18;;;;;;;29.49;36.46;100279.31;1668809;86;21291;-81
2023/08/20 01:00:05;;;;;;;19.30;7.40;;;;;;;29.72;36.23;100274.80;1668854;86;21299;-80
2023/08/20 01:03:10;;;;;;;22.25;8.90;;;;;;;29.65;36.34;100276.59;1669815;86;21268;-75
2023/08/20 01:06:28;;;;;;;16.17;8.45;;;;;;;29.21;36.95;100281.09;1684559;85;21363;-74
2023/08/20 01:10:03;;;;;;;19.15;8.30;;;;;;;29.31;36.91;100280.13;1684644;85;21331;-80
2023/08/20 01:13:09;;;;;;;20.75;7.92;;;;;;;29.42;36.76;100277.45;1663264;85;21306;-80
2023/08/20 01:16:14;;;;;;;16.25;8.10;;;;;;;29.47;36.68;100280.20;1651624;87;21876;-80
2023/08/20 01:19:22;;;;;;;21.02;8.15;;;;;;;29.65;36.32;100272.37;1680585;85;21833;-75
2023/08/20 01:22:58;;;;;;;18.00;8.03;;;;;;;29.45;36.64;100266.97;1651592;87;21349;-80
2023/08/20 01:26:29;;;;;;;20.05;8.05;;;;;;;29.25;36.97;100275.97;1680852;85;21869;-80
2023/08/20 01:29:37;;;;;;;19.87;8.05;;;;;;;29.05;37.27;100267.79;1650973;87;21373;-75
2023/08/20 01:32:44;;;;;;;14.38;7.40;;;;;;;28.97;37.39;100273.50;1679719;85;21338;-81
2023/08/20 01:35:52;;;;;;;13.25;7.53;;;;;;;29.39;36.80;100271.01;1651899;87;21310;-74
2023/08/20 01:38:51;;;;;;;24.30;8.93;;;;;;;29.15;37.11;100276.11;1680749;85;21916;-80
2023/08/20 01:41:44;;;;;;;15.75;7.40;;;;;;;29.15;37.13;100267.66;1651626;86;21333;-75
2023/08/20 01:44:49;;;;;;;18.10;9.43;;;;;;;29.10;37.13;100265.48;1681001;85;21283;-80
2023/08/20 01:47:55;;;;;;;20.12;8.13;;;;;;;29.14;37.07;100267.97;1651686;87;21384;-80
2023/08/20 01:51:03;;;;;;;22.52;9.08;;;;;;;28.98;37.25;100271.52;1680388;85;21338;-76
2023/08/20 01:54:08;;;;;;;20.72;7.95;;;;;;;28.94;37.32;100268.45;1651443;87;21353;-76
2023/08/20 01:57:14;;;;;;;14.47;7.87;;;;;;;28.89;37.38;100263.43;1679543;85;21327;-76
2023/08/20 02:00:21;;;;;;;15.63;8.73;;;;;;;28.70;37.63;100262.83;1650534;87;21334;-81
2023/08/20 02:03:27;;;;;;;18.42;7.35;;;;;;;28.75;37.61;100267.56;1679629;85;21796;-76
2023/08/20 02:06:33;;;;;;;16.95;6.70;;;;;;;28.62;37.84;100265.44;1650690;87;21330;-82
2023/08/20 02:09:38;;;;;;;20.40;7.40;;;;;;;28.63;37.73;100266.54;1680183;85;21903;-76
2023/08/20 02:12:44;;;;;;;19.10;7.55;;;;;;;28.56;37.74;100267.48;1679930;85;21287;-80
2023/08/20 02:15:50;;;;;;;21.82;7.25;;;;;;;28.65;37.51;100264.83;1651023;87;21361;-75
2023/08/20 02:18:55;;;;;;;19.00;7.45;;;;;;;28.73;37.38;100266.42;1679761;85;21290;-76
2023/08/20 02:22:01;;;;;;;21.85;6.83;;;;;;;28.55;37.63;100268.59;1649918;87;21389;-76
2023/08/20 02:25:07;;;;;;;13.68;6.65;;;;;;;28.50;37.67;100272.29;1679629;85;21342;-77
2023/08/20 02:28:12;;;;;;;17.57;6.47;;;;;;;28.48;37.78;100268.11;1650541;86;21361;-76
2023/08/20 02:31:18;;;;;;;15.25;6.92;;;;;;;28.42;37.82;100270.68;1679566;85;21735;-82
2023/08/20 02:34:25;;;;;;;17.50;6.20;;;;;;;28.34;37.90;100271.31;1650651;87;21290;-76
2023/08/20 02:37:32;;;;;;;17.42;6.72;;;;;;;28.48;37.67;100278.80;1679858;85;21303;-81
2023/08/20 02:40:38;;;;;;;12.20;6.12;;;;;;;28.51;37.53;100273.12;1650949;87;21310;-76
2023/08/20 02:43:45;;;;;;;19.98;6.55;;;;;;;28.52;37.54;100272.02;1679844;85;21331;-76
2023/08/20 02:46:50;;;;;;;13.40;6.28;;;;;;;28.48;37.60;100274.58;1651013;87;21357;-75
2023/08/20 02:49:55;;;;;;;12.75;5.95;;;;;;;28.67;37.40;100274.66;1679550;85;21676;-81
2023/08/20 02:53:03;;;;;;;12.73;6.03;;;;;;;28.70;37.38;100283.93;1650513;87;21931;-81
2023/08/20 02:56:09;;;;;;;14.63;5.90;;;;;;;28.67;37.41;100277.48;1679341;85;21315;-78
2023/08/20 02:59:14;;;;;;;11.60;4.87;;;;;;;28.79;37.33;100275.64;1650640;87;21886;-76
2023/08/20 03:02:20;;;;;;;18.27;5.85;;;;;;;29.24;36.63;100281.34;1679455;85;21318;-75
2023/08/20 03:05:29;;;;;;;10.95;5.20;;;;;;;28.91;37.03;100281.71;1650529;87;21329;-81
2023/08/20 03:08:34;;;;;;;20.97;5.50;;;;;;;29.02;36.88;100281.05;1678187;85;21307;-80
2023/08/20 03:11:40;;;;;;;10.60;5.10;;;;;;;28.93;36.97;100287.03;1650574;86;21849;-74
2023/08/20 03:14:47;;;;;;;12.45;4.78;;;;;;;28.96;37.03;100287.89;1650640;86;22188;-80
2023/08/20 03:17:52;;;;;;;11.85;5.35;;;;;;;28.99;37.07;100285.32;1664963;86;21368;-75
2023/08/20 03:20:59;;;;;;;21.80;5.78;;;;;;;29.02;37.06;100283.86;1682045;85;21378;-74
2023/08/20 03:24:05;;;;;;;14.93;5.92;;;;;;;29.12;36.95;100286.55;1655248;86;21712;-81
2023/08/20 03:27:11;;;;;;;9.20;5.25;;;;;;;29.35;36.66;100289.66;1680845;85;21370;-81
2023/08/20 03:30:17;;;;;;;15.72;5.67;;;;;;;29.32;36.77;100284.64;1654681;86;21356;-82
2023/08/20 03:33:23;;;;;;;18.48;5.47;;;;;;;29.63;36.37;100287.31;1682376;85;21279;-76
2023/08/20 03:36:29;;;;;;;22.10;5.55;;;;;;;29.92;35.93;100284.91;1655102;86;21651;-76
2023/08/20 03:39:35;;;;;;;12.68;5.33;;;;;;;29.79;36.14;100283.72;1682788;85;21661;-76
2023/08/20 03:42:42;;;;;;;12.20;4.90;;;;;;;29.91;35.95;100288.88;1654902;86;21218;-76
2023/08/20 03:45:49;;;;;;;12.37;5.25;;;;;;;30.03;35.86;100289.27;1681649;85;21350;-76
2023/08/20 03:48:48;;;;;;;;;;;;;;;29.69;36.30;100279.62;1658007;86;21320;-76
2023/08/20 03:51:53;;;;;;;10.98;5.42;;;;;;;29.70;36.42;100285.55;1681369;85;20678;-82
2023/08/20 03:55:00;;;;;;;10.63;4.92;;;;;;;29.97;36.17;100287.64;1655486;86;21902;-81
2023/08/20 03:58:06;;;;;;;11.33;5.05;;;;;;;29.48;37.00;100284.11;1682474;85;21283;-82
2023/08/20 04:01:12;;;;;;;15.50;5.12;;;;;;;29.95;36.34;100281.48;1654385;86;21320;-82
2023/08/20 04:04:17;;;;;;;13.48;5.67;;;;;;;29.64;36.84;100281.97;1683050;85;21308;-75
2023/08/20 04:07:23;;;;;;;15.45;5.50;;;;;;;29.90;36.53;100273.12;1656617;86;21372;-81
2023/08/20 04:10:31;;;;;;;12.13;5.58;;;;;;;30.02;36.42;100277.16;1683489;85;21310;-81
2023/08/20 04:13:37;;;;;;;15.23;5.30;;;;;;;30.27;36.14;100274.50;1646821;86;21944;-81
2023/08/20 04:16:43;;;;;;;15.55;4.97;;;;;;;30.35;36.23;100276.33;1642776;86;21301;-77
2023/08/20 04:19:49;;;;;;;18.20;5.83;;;;;;;30.60;35.94;100280.13;1670379;86;22203;-74
2023/08/20 04:22:55;;;;;;;17.60;5.47;;;;;;;30.65;35.87;100277.20;1655389;86;21965;-79
2023/08/20 04:26:03;;;;;;;12.80;5.05;;;;;;;30.93;35.31;100277.27;1670538;86;21354;-74
2023/08/20 04:29:10;;;;;;;17.82;5.72;;;;;;;31.14;35.05;100275.68;1643602;87;21316;-74
2023/08/20 04:32:15;;;;;;;16.20;5.72;;;;;;;31.11;35.33;100273.51;1669409;86;21296;-74
2023/08/20 04:35:21;;;;;;;17.82;5.60;;;;;;;31.21;35.58;100278.94;1656676;86;21305;-80
2023/08/20 04:38:27;;;;;;;16.52;5.05;;;;;;;31.49;35.47;100271.88;1672020;86;22180;-82
2023/08/20 04:41:32;;;;;;;18.60;6.00;;;;;;;31.89;34.98;100270.68;1644505;87;21376;-80
2023/08/20 04:44:40;;;;;;;14.33;5.03;;;;;;;31.39;35.75;100276.34;1670468;86;21301;-81
2023/08/20 04:47:49;;;;;;;10.93;6.10;;;;;;;31.93;35.15;100276.80;1656761;86;21337;-81
2023/08/20 04:50:55;;;;;;;19.32;6.12;;;;;;;31.97;35.17;100283.48;1672090;86;21945;-81
2023/08/20 04:54:02;;;;;;;15.35;4.72;;;;;;;31.64;36.08;100280.58;1645068;87;21687;-75
2023/08/20 04:57:10;;;;;;;15.45;5.55;;;;;;;31.69;36.01;100279.88;1670474;86;21335;-81
2023/08/20 05:00:16;;;;;;;18.17;6.00;;;;;;;32.58;34.88;100278.28;1656693;86;21712;-82
2023/08/20 05:03:23;;;;;;;9.73;5.90;;;;;;;32.64;34.96;100277.56;1671987;86;21256;-75
2023/08/20 05:06:29;;;;;;;18.23;6.05;;;;;;;32.99;34.05;100278.61;1644856;87;21336;-76
2023/08/20 05:09:35;;;;;;;9.08;5.03;;;;;;;33.13;34.06;100284.16;1670337;86;21320;-81
2023/08/20 05:12:41;;;;;;;14.33;4.30;;;;;;;33.29;33.70;100281.11;1656559;86;21901;-81
2023/08/20 05:15:47;;;;;;;18.45;6.00;;;;;;;33.27;33.84;100284.29;1679884;85;21484;-81
2023/08/20 05:18:54;;;;;;;12.53;5.47;;;;;;;33.45;33.48;100281.51;1651584;87;21915;-75
2023/08/20 05:22:00;;;;;;;11.68;5.78;;;;;;;33.70;32.96;100286.41;1679957;85;22017;-81
2023/08/20 05:25:05;;;;;;;13.35;5.10;;;;;;;34.01;32.87;100289.10;1651777;87;21325;-81
2023/08/20 05:28:13;;;;;;;9.75;5.30;;;;;;;34.05;32.88;100287.86;1680736;85;21283;-81
2023/08/20 05:31:20;;;;;;;17.17;6.37;;;;;;;34.17;32.75;100290.87;1651713;87;21318;-80
2023/08/20 05:34:25;;;;;;;15.38;5.28;;;;;;;34.25;32.43;100288.61;1680630;85;21932;-75
2023/08/20 05:37:30;;;;;;;14.35;5.42;;;;;;;34.12;32.45;100282.53;1651676;87;21382;-75
2023/08/20 05:40:35;;;;;;;21.85;5.28;;;;;;;34.02;31.98;100278.61;1680693;85;21279;-75
2023/08/20 05:43:41;;;;;;;19.37;5.70;;;;;;;34.10;31.67;100284.02;1651659;87;21839;-80
2023/08/20 05:46:47;;;;;;;14.50;5.10;;;;;;;34.20;31.37;100288.75;1680634;85;21291;-80
2023/08/20 05:49:52;;;;;;;19.85;5.90;;;;;;;34.20;31.96;100286.50;1651713;87;21330;-81
2023/08/20 05:52:57;;;;;;;14.78;5.03;;;;;;;34.33;31.58;100291.17;1680701;85;21300;-81
2023/08/20 05:56:04;;;;;;;14.25;5.03;;;;;;;34.45;30.95;100291.92;1651573;87;21346;-81
2023/08/20 05:59:10;;;;;;;15.23;5.17;;;;;;;34.27;30.45;100287.68;1680372;85;21895;-75
2023/08/20 06:02:18;;;;;;;18.00;5.62;;;;;;;34.51;30.70;100292.84;1650953;87;21384;-75
2023/08/20 06:05:22;;;;;;;9.58;4.55;;;;;;;34.55;30.18;100293.01;1680380;85;21291;-81
2023/08/20 06:08:28;;;;;;;11.57;5.03;;;;;;;35.15;29.67;100301.94;1651384;87;21298;-73
2023/08/20 06:11:34;;;;;;;15.93;5.85;;;;;;;34.65;30.37;100296.91;1680041;85;21343;-81
2023/08/20 06:14:40;;;;;;;13.95;5.90;;;;;;;35.36;29.25;100291.20;1651662;87;21298;-76
2023/08/20 06:17:46;;;;;;;23.02;6.05;;;;;;;35.85;28.63;100290.97;1680712;85;21852;-81
2023/08/20 06:20:53;;;;;;;14.83;5.47;;;;;;;35.85;28.63;100290.97;1651670;87;21309;-81
2023/08/20 06:23:59;;;;;;;17.30;5.92;;;;;;;35.85;29.24;100288.13;1679801;85;21292;-75
2023/08/20 06:27:05;;;;;;;17.32;5.90;;;;;;;35.82;29.01;100291.09;1650861;87;21381;-76
2023/08/20 06:30:13;;;;;;;17.85;5.58;;;;;;;36.18;28.98;100283.94;1680441;85;21305;-75
2023/08/20 06:33:18;;;;;;;20.23;5.75;;;;;;;36.30;29.04;100284.59;1650861;86;22386;-81
2023/08/20 06:36:24;;;;;;;22.52;5.50;;;;;;;36.14;28.88;100285.84;1680056;85;21326;-80
2023/08/20 06:39:30;;;;;;;13.70;5.50;;;;;;;36.14;28.88;100285.84;1651503;87;21366;-76
2023/08/20 06:42:37;;;;;;;14.00;6.17;;;;;;;36.10;28.77;100290.56;1679291;85;21338;-76
2023/08/20 06:45:44;;;;;;;11.55;5.33;;;;;;;36.40;28.55;100286.16;1651533;87;21363;-82
2023/08/20 06:48:50;;;;;;;16.55;5.30;;;;;;;36.54;28.39;100284.70;1680473;85;21852;-82
2023/08/20 06:51:56;;;;;;;12.40;5.37;;;;;;;36.67;28.42;100286.16;1651418;87;21330;-76
2023/08/20 06:55:01;;;;;;;13.55;5.45;;;;;;;36.76;28.63;100283.45;1680686;85;21335;-76
2023/08/20 06:58:07;;;;;;;15.45;6.62;;;;;;;36.95;28.30;100281.48;1651790;87;21313;-76
2023/08/20 07:01:13;;;;;;;15.78;5.60;;;;;;;37.14;27.74;100285.78;1680280;85;21344;-75
2023/08/20 07:04:19;;;;;;;20.17;5.80;;;;;;;37.21;28.24;100276.86;1650300;86;21737;-81
2023/08/20 07:07:24;;;;;;;10.05;5.08;;;;;;;37.14;27.91;100270.93;1677665;85;21367;-81
2023/08/20 07:10:30;;;;;;;8.20;5.00;;;;;;;37.19;28.04;100268.44;1650385;87;21313;-76
2023/08/20 07:13:37;;;;;;;11.43;5.00;;;;;;;37.28;28.05;100277.11;1679360;85;21359;-81
2023/08/20 07:16:42;;;;;;;13.83;5.90;;;;;;;36.25;28.76;100272.00;1650266;87;21317;-75
2023/08/20 07:19:46;;;;;;;11.38;5.00;;;;;;;37.18;27.77;100273.91;1653482;85;21939;-82
2023/08/20 07:22:53;;;;;;;13.90;5.70;;;;;;;36.84;28.04;100267.41;1650538;87;21364;-75
2023/08/20 07:26:03;;;;;;;11.50;5.50;;;;;;;37.39;27.22;100263.81;1679547;85;21276;-76
2023/08/20 07:29:09;;;;;;;12.73;4.83;;;;;;;37.44;27.43;100264.39;1647159;87;21302;-81
2023/08/20 07:32:14;;;;;;;13.30;5.20;;;;;;;37.25;27.51;100264.14;1679423;85;21330;-80
2023/08/20 07:35:19;;;;;;;14.00;5.40;;;;;;;37.38;27.19;100265.01;1650427;87;21693;-81
2023/08/20 07:38:25;;;;;;;17.23;5.35;;;;;;;37.73;27.44;100267.55;1679970;85;21790;-80
2023/08/20 07:41:31;;;;;;;15.13;4.92;;;;;;;37.84;26.87;100259.36;1651599;87;21677;-81
2023/08/20 07:44:38;;;;;;;15.35;5.10;;;;;;;38.17;26.15;100269.11;1680520;85;21873;-78
2023/08/20 07:47:46;;;;;;;14.20;5.10;;;;;;;38.30;26.18;100262.76;1651445;87;21378;-75
2023/08/20 07:50:53;;;;;;;17.60;5.25;;;;;;;38.37;26.22;100264.41;1679089;85;21856;-75
2023/08/20 07:54:00;;;;;;;16.17;5.00;;;;;;;38.53;26.25;100270.97;1651091;87;21334;-76
2023/08/20 07:57:06;;;;;;;14.63;5.03;;;;;;;38.59;25.86;100264.41;1679729;85;21355;-76
2023/08/20 08:00:13;;;;;;;13.90;5.20;;;;;;;38.62;25.73;100263.66;1651742;87;21338;-80
2023/08/20 08:03:20;;;;;;;10.98;4.12;;;;;;;38.79;25.41;100257.63;1680476;85;21275;-75
2023/08/20 08:06:27;;;;;;;13.32;5.35;;;;;;;39.06;25.01;100261.59;1651447;87;21349;-75
2023/08/20 08:09:38;;;;;;;13.30;4.47;;;;;;;39.30;24.20;100269.16;1680298;85;21314;-81
2023/08/20 08:12:42;;;;;;;15.05;3.90;;;;;;;39.43;23.61;100261.88;1651799;87;21361;-82
2023/08/20 08:15:47;;;;;;;12.85;3.77;;;;;;;39.34;22.82;100258.64;1680549;85;21690;-82
2023/08/20 08:18:52;;;;;;;14.90;4.03;;;;;;;39.32;22.72;100257.34;1645062;87;21331;-76
2023/08/20 08:21:58;;;;;;;13.43;4.85;;;;;;;39.39;22.08;100259.56;1642661;87;21348;-75
2023/08/20 08:25:03;;;;;;;11.68;4.15;;;;;;;39.60;22.55;100251.45;1670188;86;21284;-75
2023/08/20 08:28:13;;;;;;;14.33;4.20;;;;;;;39.47;23.03;100257.07;1656595;86;21899;-76
2023/08/20 08:31:19;;;;;;;18.40;4.20;;;;;;;39.28;23.05;100248.66;1671948;86;21299;-81
2023/08/20 08:34:25;;;;;;;10.85;4.15;;;;;;;39.64;23.29;100249.54;1644791;87;21340;-81
2023/08/20 08:37:31;;;;;;;17.30;4.22;;;;;;;39.37;22.90;100245.61;1670474;86;21356;-75
2023/08/20 08:40:37;;;;;;;14.00;4.33;;;;;;;39.40;22.85;100247.73;1656732;86;21309;-81
2023/08/20 08:43:43;;;;;;;15.15;4.30;;;;;;;39.40;22.67;100246.30;1672253;86;21300;-75
2023/08/20 08:46:49;;;;;;;14.03;4.08;;;;;;;39.43;23.30;100240.42;1644889;87;21380;-76
2023/08/20 08:49:54;;;;;;;9.45;3.52;;;;;;;39.56;22.99;100240.52;1670273;86;21331;-75
2023/08/20 08:52:59;;;;;;;13.65;3.85;;;;;;;39.33;21.98;100236.93;1656594;86;21298;-75
2023/08/20 08:56:05;;;;;;;11.33;3.77;;;;;;;39.68;22.39;100236.75;1670988;86;21320;-81
2023/08/20 08:59:11;;;;;;;10.15;3.17;;;;;;;39.88;21.98;100241.88;1644631;87;21265;-76
2023/08/20 09:02:19;;;;;;;10.98;3.02;;;;;;;39.70;21.68;100236.58;1669574;86;21869;-81
2023/08/20 09:05:24;;;;;;;9.40;3.80;;;;;;;39.65;21.05;100225.43;1656128;86;21361;-75
2023/08/20 09:08:36;;;;;;;18.12;3.40;;;;;;;39.75;20.34;100229.12;1672265;86;21882;-75
2023/08/20 09:11:43;;;;;;;5.12;2.50;;;;;;;39.85;19.71;100225.69;1645087;87;21360;-75
2023/08/20 09:15:00;;;;;;;10.53;2.62;;;;;;;39.96;18.48;100228.77;1670512;86;21320;-75
2023/08/20 09:18:06;;;;;;;7.17;2.77;;;;;;;40.15;18.18;100226.53;1655301;86;21854;-75
2023/08/20 09:21:15;;;;;;;7.78;3.02;;;;;;;39.96;17.67;100227.95;1680168;85;21837;-81
2023/08/20 09:24:21;;;;;;;17.95;3.60;;;;;;;39.81;18.03;100220.48;1651834;87;21297;-80
2023/08/20 09:27:27;;;;;;;7.58;2.87;;;;;;;40.21;18.53;100227.88;1680680;85;21912;-81
2023/08/20 09:30:34;;;;;;;8.75;2.85;;;;;;;40.26;17.31;100215.28;1651597;87;21318;-75
2023/08/20 09:33:40;;;;;;;10.30;3.35;;;;;;;40.09;15.53;100226.63;1680661;85;21291;-77
2023/08/20 09:36:47;;;;;;;8.73;3.87;;;;;;;40.27;16.29;100216.92;1650714;87;21341;-80
2023/08/20 09:39:54;;;;;;;7.75;2.90;;;;;;;40.51;18.43;100218.06;1680556;85;21314;-77
2023/08/20 09:42:55;;;;;;;12.07;2.50;;;;;;;40.52;17.17;100218.88;1651658;87;21318;-81
2023/08/20 09:45:48;;;;;;;9.48;2.62;;;;;;;40.51;17.54;100219.49;1680324;85;21319;-81
2023/08/20 09:48:57;;;;;;;12.35;2.92;;;;;;;40.52;17.39;100216.02;1650488;87;21362;-75
2023/08/20 09:52:03;;;;;;;7.30;2.55;;;;;;;40.24;16.52;100216.27;1679702;85;21658;-81
2023/08/20 09:55:20;;;;;;;9.48;2.42;;;;;;;40.54;15.45;100216.45;1651586;87;21322;-81
2023/08/20 09:58:25;;;;;;;10.10;2.65;;;;;;;40.85;15.93;100214.77;1680548;85;21272;-76
2023/08/20 10:01:29;;;;;;;8.70;2.60;;;;;;;41.03;15.26;100211.38;1651846;87;21925;-75
2023/08/20 10:04:35;;;;;;;10.63;3.08;;;;;;;41.14;15.52;100213.83;1680661;85;21398;-75
2023/08/20 10:07:41;;;;;;;7.62;2.80;;;;;;;41.13;15.45;100209.31;1650243;86;22270;-75
2023/08/20 10:10:47;;;;;;;11.00;2.70;;;;;;;41.34;15.56;100212.48;1680514;85;21274;-81
2023/08/20 10:13:52;;;;;;;12.60;2.85;;;;;;;41.36;15.67;100202.94;1651341;87;21303;-81
2023/08/20 10:16:57;;;;;;;10.60;3.00;;;;;;;41.38;16.15;100206.84;1680461;85;21263;-81
2023/08/20 10:20:05;;;;;;;9.98;3.05;;;;;;;41.39;16.37;100204.80;1651508;87;21377;-75
2023/08/20 10:23:11;;;;;;;5.78;2.80;;;;;;;41.43;15.39;100201.38;1679333;85;21820;-81
2023/08/20 10:26:21;;;;;;;7.40;2.77;;;;;;;41.38;15.21;100198.84;1651628;87;21385;-82
2023/08/20 10:29:45;;;;;;;7.05;2.20;;;;;;;41.06;16.10;100197.70;1680301;85;21819;-82
2023/08/20 10:33:03;;;;;;;4.55;2.10;;;;;;;40.97;16.34;100192.84;1636332;87;21329;-75
2023/08/20 10:36:22;;;;;;;6.67;1.70;;;;;;;41.08;14.26;100198.17;1679282;85;21346;-81
2023/08/20 10:39:30;;;;;;;7.65;1.77;;;;;;;41.22;13.63;100195.52;1651071;87;21874;-81
2023/08/20 10:42:35;;;;;;;17.98;2.22;;;;;;;41.19;13.98;100196.28;1679425;85;21327;-75
2023/08/20 10:45:44;;;;;;;6.75;2.00;;;;;;;41.42;14.06;100195.42;1650684;87;21329;-76
2023/08/20 10:48:49;;;;;;;8.95;2.27;;;;;;;41.29;14.21;100187.61;1676113;85;21658;-81
2023/08/20 10:51:57;;;;;;;13.08;2.90;;;;;;;41.11;14.82;100191.64;1650126;87;22232;-75
2023/08/20 10:55:04;;;;;;;7.35;2.30;;;;;;;41.34;14.48;100182.36;1676055;85;21306;-82
2023/08/20 10:58:11;;;;;;;9.05;2.75;;;;;;;41.49;15.13;100178.28;1650593;87;21362;-81
2023/08/20 11:01:29;;;;;;;10.40;2.30;;;;;;;41.42;14.19;100182.51;1679617;85;21314;-77
2023/08/20 11:04:39;;;;;;;6.00;2.25;;;;;;;41.67;14.23;100175.66;1647468;87;21985;-81
2023/08/20 11:07:47;;;;;;;7.70;2.40;;;;;;;41.56;14.39;100178.39;1678393;85;21299;-81
2023/08/20 11:10:53;;;;;;;11.63;2.80;;;;;;;41.50;14.52;100175.63;1646101;86;21649;-82
2023/08/20 11:13:59;;;;;;;13.75;2.10;;;;;;;41.29;14.57;100169.78;1679562;85;21315;-75
2023/08/20 11:17:06;;;;;;;9.33;2.30;;;;;;;41.80;13.72;100168.48;1649802;87;21724;-82
2023/08/20 11:20:14;;;;;;;9.60;2.25;;;;;;;41.97;13.51;100164.15;1679383;85;21279;-75
2023/08/20 11:23:21;;;;;;;7.35;2.25;;;;;;;41.98;13.95;100160.08;1625727;88;21336;-81
2023/08/20 11:26:27;;;;;;;6.40;1.90;;;;;;;41.59;14.07;100156.07;1610485;89;22002;-75
2023/08/20 11:29:33;;;;;;;20.60;2.98;;;;;;;41.61;14.88;100154.48;1657410;86;21307;-82
2023/08/20 11:32:40;;;;;;;13.95;2.67;;;;;;;41.61;14.51;100149.34;1610703;89;21248;-76
2023/08/20 11:35:45;;;;;;;7.22;2.15;;;;;;;41.61;14.84;100149.34;1609911;89;21314;-82
2023/08/20 11:39:00;;;;;;;11.12;1.98;;;;;;;41.65;14.59;100146.53;1610089;89;21307;-82
2023/08/20 11:42:06;;;;;;;11.78;2.42;;;;;;;42.16;14.25;100135.83;1656890;86;21912;-76
2023/08/20 11:45:14;;;;;;;12.03;2.95;;;;;;;42.07;14.06;100134.12;1607819;88;21939;-75
2023/08/20 11:48:21;;;;;;;10.48;2.80;;;;;;;42.13;14.02;100131.72;1640329;86;21283;-82
2023/08/20 11:51:26;;;;;;;7.95;2.37;;;;;;;41.93;14.20;100133.97;1610864;89;21410;-75
2023/08/20 11:54:33;;;;;;;13.28;2.00;;;;;;;42.12;14.40;100124.33;1617011;88;21338;-81
2023/08/20 11:57:39;;;;;;;4.75;2.05;;;;;;;42.07;13.80;100124.69;1647735;87;21404;-76
2023/08/20 12:00:46;;;;;;;8.38;1.82;;;;;;;41.78;14.21;100127.25;1638884;87;21816;-75
2023/08/20 12:03:53;;;;;;;9.60;2.08;;;;;;;41.89;14.17;100127.36;1640783;87;21963;-75
2023/08/20 12:07:15;;;;;;;6.90;2.27;;;;;;;41.93;14.16;100125.36;1638169;87;21887;-82
2023/08/20 12:10:29;;;;;;;9.48;2.15;;;;;;;42.00;14.24;100126.03;1651713;87;21320;-75
2023/08/20 12:13:34;;;;;;;15.93;2.35;;;;;;;42.02;13.66;100122.14;1652891;87;21261;-81
2023/08/20 12:16:40;;;;;;;10.78;2.25;;;;;;;42.08;13.48;100121.41;1653011;87;21852;-81
2023/08/20 12:19:47;;;;;;;7.60;2.25;;;;;;;42.22;13.58;100119.94;1653055;87;21776;-76
2023/08/20 12:22:52;;;;;;;5.95;2.40;;;;;;;41.79;13.46;100115.97;1667576;85;21269;-82
2023/08/20 12:25:59;;;;;;;12.45;2.35;;;;;;;41.22;13.74;100113.75;1682939;85;21293;-82
2023/08/20 12:29:06;;;;;;;9.88;2.62;;;;;;;41.23;13.54;100112.53;1682866;85;21273;-81
2023/08/20 12:32:12;;;;;;;10.82;2.40;;;;;;;41.17;14.71;100106.89;1681891;85;21296;-81
2023/08/20 12:35:19;;;;;;;8.58;2.65;;;;;;;40.75;15.15;100103.61;1682747;85;21541;-82
2023/08/20 12:38:26;;;;;;;5.60;1.75;;;;;;;40.98;14.86;100104.16;1682886;85;21280;-75
2023/08/20 12:41:32;;;;;;;15.55;2.83;;;;;;;40.97;14.34;100096.78;1682925;85;21807;-81
2023/08/20 12:44:38;;;;;;;7.90;2.00;;;;;;;41.18;14.21;100095.66;1683975;85;21286;-82
2023/08/20 12:47:44;;;;;;;7.60;2.10;;;;;;;40.95;14.22;100093.48;1683207;85;21842;-82
2023/08/20 12:50:50;;;;;;;8.65;2.20;;;;;;;40.96;13.99;100096.56;1684465;85;21885;-82
2023/08/20 12:53:56;;;;;;;6.80;2.00;;;;;;;40.92;14.03;100092.17;1684244;85;21340;-76
2023/08/20 12:57:02;;;;;;;7.35;1.98;;;;;;;40.92;14.22;100094.22;1684145;85;21348;-76
2023/08/20 13:00:11;;;;;;;13.00;2.20;;;;;;;41.15;15.11;100096.43;1684136;85;21174;-81
2023/08/20 13:03:17;;;;;;;8.30;2.25;;;;;;;41.27;14.21;100088.20;1684071;85;21722;-81
2023/08/20 13:06:24;;;;;;;13.15;2.02;;;;;;;41.26;14.01;100085.09;1684109;85;21276;-76
2023/08/20 13:09:31;;;;;;;12.45;1.92;;;;;;;41.35;14.68;100080.70;1683268;85;21634;-75
2023/08/20 13:12:36;;;;;;;6.42;2.02;;;;;;;41.30;14.56;100083.09;1683673;85;21181;-82
2023/08/20 13:15:42;;;;;;;8.68;2.15;;;;;;;41.41;14.88;100085.55;1683927;85;21293;-83
2023/08/20 13:18:49;;;;;;;8.85;2.00;;;;;;;41.50;15.06;100082.34;1684065;85;21321;-82
2023/08/20 13:21:54;;;;;;;12.75;2.40;;;;;;;41.38;15.51;100077.71;1683469;85;21352;-81
2023/08/20 13:25:01;;;;;;;10.20;2.30;;;;;;;41.54;14.93;100073.17;1661500;85;21313;-81
2023/08/20 13:28:07;;;;;;;6.62;1.85;;;;;;;41.13;15.00;100077.97;1660609;86;21319;-75
2023/08/20 13:31:14;;;;;;;6.75;2.05;;;;;;;41.23;14.46;100070.94;1660447;86;21288;-81
2023/08/20 13:34:19;;;;;;;15.15;2.70;;;;;;;41.39;14.20;100073.62;1661669;86;21583;-75
2023/08/20 13:37:25;;;;;;;7.53;2.25;;;;;;;41.42;14.00;100073.45;1661656;86;21351;-81
2023/08/20 13:40:31;;;;;;;10.05;1.85;;;;;;;41.40;14.04;100063.78;1660939;86;21339;-81
2023/08/20 13:43:39;;;;;;;14.73;2.02;;;;;;;41.17;14.06;100059.56;1661552;86;21292;-81
2023/08/20 13:46:47;;;;;;;8.00;2.02;;;;;;;41.32;14.14;100064.91;1661001;86;21323;-82
2023/08/20 13:49:53;;;;;;;8.83;2.52;;;;;;;41.15;14.53;100062.01;1661021;86;21324;-82
2023/08/20 13:52:58;;;;;;;7.53;2.22;;;;;;;41.23;15.21;100062.33;1660387;86;21343;-76
2023/08/20 13:56:04;;;;;;;8.08;2.17;;;;;;;40.60;15.39;100058.71;1660697;86;21866;-82
2023/08/20 13:59:11;;;;;;;10.32;2.05;;;;;;;40.39;15.12;100052.62;1661700;86;21340;-81
2023/08/20 14:02:18;;;;;;;7.60;2.00;;;;;;;40.56;15.08;100054.95;1661000;86;21340;-81
2023/08/20 14:05:24;;;;;;;10.40;1.87;;;;;;;41.21;15.12;100052.45;1661824;86;21324;-81
2023/08/20 14:08:30;;;;;;;4.53;1.95;;;;;;;41.12;15.27;100057.04;1661605;86;21835;-75
2023/08/20 14:11:36;;;;;;;4.75;2.12;;;;;;;40.86;15.82;100049.29;1661012;86;21323;-75
2023/08/20 14:14:42;;;;;;;9.08;2.20;;;;;;;41.18;15.03;100051.81;1661360;86;21703;-75
2023/08/20 14:17:49;;;;;;;12.65;2.62;;;;;;;41.10;14.86;100051.70;1660355;86;21403;-82
2023/08/20 14:20:56;;;;;;;5.58;1.82;;;;;;;41.25;14.72;100046.97;1660679;86;21364;-76